Time;durP1;ratioP1;P1;durP2;ratioP2;P2;SDS_P1;SDS_P2;PMS_P1;PMS_P2;Temp;Humidity;BMP_temperature;BMP_pressure;BME280_temperature;BME280_humidity;BME280_pressure;Samples;Min_cycle;Max_cycle;Signal;HPM_P1;HPM_P2
2022/11/12 00:06:52;;;;;;;22.53;8.23;;;7.30;99.90;;;;;;21029314;28;20047;-77
2022/11/12 00:17:12;;;;;;;24.40;10.50;;;7.10;99.90;;;;;;21075783;28;20035;-77
2022/11/12 00:27:32;;;;;;;31.70;13.13;;;7.00;99.90;;;;;;21069063;28;20675;-76
2022/11/12 00:37:55;;;;;;;34.38;13.52;;;7.10;99.90;;;;;;20928755;28;20036;-76
2022/11/12 00:48:15;;;;;;;29.63;11.38;;;6.90;99.90;;;;;;20924621;28;20041;-77
2022/11/12 00:58:35;;;;;;;33.53;13.00;;;6.90;99.90;;;;;;20946104;28;20111;-76
2022/11/12 01:08:55;;;;;;;35.35;12.32;;;6.80;99.90;;;;;;20931550;28;20040;-76
2022/11/12 01:19:14;;;;;;;37.15;13.93;;;6.90;99.90;;;;;;20956536;28;20068;-76
2022/11/12 01:29:34;;;;;;;40.38;14.35;;;6.90;99.90;;;;;;20946740;28;20045;-77
2022/11/12 01:39:53;;;;;;;39.60;12.48;;;6.80;99.90;;;;;;20922402;28;20044;-77
2022/11/12 01:50:33;;;;;;;32.80;12.43;;;6.80;99.90;;;;;;20920411;28;20032;-77
2022/11/12 02:00:53;;;;;;;36.47;12.88;;;6.80;99.90;;;;;;20921176;28;20056;-77
2022/11/12 02:11:14;;;;;;;28.00;10.80;;;6.80;99.90;;;;;;20921071;28;20041;-76
2022/11/12 02:21:35;;;;;;;38.08;12.30;;;6.80;99.90;;;;;;20916810;28;20037;-77
2022/11/12 02:31:54;;;;;;;33.15;12.15;;;6.70;99.90;;;;;;20917772;28;20052;-77
2022/11/12 02:42:13;;;;;;;37.17;12.10;;;6.80;99.90;;;;;;20903558;28;20523;-77
2022/11/12 02:52:32;;;;;;;34.28;12.30;;;6.80;99.90;;;;;;20916440;28;20455;-76
2022/11/12 03:02:57;;;;;;;44.60;14.02;;;6.70;99.90;;;;;;20934921;28;20044;-76
2022/11/12 03:13:17;;;;;;;56.03;15.95;;;6.70;99.90;;;;;;20914944;28;20041;-77
2022/11/12 03:23:36;;;;;;;48.72;14.52;;;6.70;99.90;;;;;;20914231;28;20424;-77
2022/11/12 03:33:56;;;;;;;55.78;16.70;;;6.70;99.90;;;;;;20898563;28;20044;-77
2022/11/12 03:44:15;;;;;;;48.28;15.45;;;6.80;99.90;;;;;;20911799;28;20507;-77
2022/11/12 03:54:34;;;;;;;45.90;14.82;;;6.80;99.90;;;;;;20912698;28;20478;-77
2022/11/12 04:15:31;;;;;;;48.90;16.58;;;6.80;99.90;;;;;;20910074;28;20041;-76
2022/11/12 04:36:29;;;;;;;54.08;16.42;;;6.80;99.90;;;;;;20909123;28;20116;-77
2022/11/12 04:46:48;;;;;;;56.53;16.48;;;6.80;99.90;;;;;;20892799;28;20040;-76
2022/11/12 04:57:07;;;;;;;52.38;15.77;;;6.70;99.90;;;;;;20907175;28;20072;-76
2022/11/12 05:07:26;;;;;;;54.80;14.88;;;6.70;99.90;;;;;;20906189;28;20484;-76
2022/11/12 05:17:45;;;;;;;40.80;14.40;;;6.80;99.90;;;;;;20906807;28;20450;-76
2022/11/12 05:28:05;;;;;;;39.83;14.55;;;6.80;99.90;;;;;;20918495;28;20037;-78
2022/11/12 05:38:24;;;;;;;42.83;13.73;;;6.90;99.90;;;;;;20910490;28;20038;-77
2022/11/12 05:48:43;;;;;;;39.45;13.18;;;6.80;99.90;;;;;;20912300;28;20045;-78
2022/11/12 05:59:05;;;;;;;35.65;12.75;;;6.70;99.90;;;;;;20912089;28;20037;-78
2022/11/12 06:09:24;;;;;;;34.47;12.68;;;6.60;99.90;;;;;;20934484;28;20033;-79
2022/11/12 06:19:43;;;;;;;35.60;11.82;;;6.60;99.90;;;;;;20933399;28;20077;-79
2022/11/12 06:30:04;;;;;;;39.30;13.55;;;6.60;99.90;;;;;;20931930;28;20048;-79
2022/11/12 06:40:23;;;;;;;39.57;13.23;;;6.70;99.90;;;;;;20981824;28;20036;-79
2022/11/12 06:50:43;;;;;;;39.85;14.18;;;6.60;99.90;;;;;;20963572;28;20407;-79
2022/11/12 07:01:11;;;;;;;44.97;14.50;;;6.60;99.90;;;;;;20922908;28;20315;-78
2022/11/12 07:11:30;;;;;;;39.60;13.27;;;6.60;99.90;;;;;;21003695;28;20055;-79
2022/11/12 07:21:50;;;;;;;46.88;13.75;;;6.50;99.90;;;;;;21010573;28;20044;-79
2022/11/12 07:32:09;;;;;;;38.05;12.02;;;6.60;99.90;;;;;;20996513;28;20041;-78
2022/11/12 07:42:31;;;;;;;32.72;11.27;;;6.50;99.90;;;;;;21006868;28;20407;-79
2022/11/12 07:52:50;;;;;;;39.38;11.60;;;6.60;99.90;;;;;;20989991;28;20037;-80
2022/11/12 08:03:09;;;;;;;32.10;11.98;;;6.70;99.90;;;;;;21004604;28;20040;-77
2022/11/12 08:13:28;;;;;;;34.83;12.07;;;7.00;99.90;;;;;;20995256;28;20028;-77
2022/11/12 08:23:47;;;;;;;40.85;13.55;;;7.20;99.90;;;;;;20991280;28;20040;-77
2022/11/12 08:34:12;;;;;;;44.15;14.13;;;7.20;99.90;;;;;;21033837;28;20447;-76
2022/11/12 08:44:32;;;;;;;29.50;12.90;;;7.30;99.90;;;;;;21074955;28;20111;-77
2022/11/12 08:54:51;;;;;;;36.35;13.60;;;7.40;99.90;;;;;;21074389;28;20440;-77
2022/11/12 09:05:11;;;;;;;40.75;13.65;;;7.50;99.90;;;;;;21073985;28;20063;-77
2022/11/12 09:15:30;;;;;;;48.38;15.13;;;7.60;99.90;;;;;;21073895;28;20036;-77
2022/11/12 09:25:49;;;;;;;38.20;14.52;;;7.70;99.90;;;;;;21077376;28;20044;-78
2022/11/12 09:36:09;;;;;;;34.60;14.02;;;7.80;99.90;;;;;;21089994;28;20036;-77
2022/11/12 09:46:40;;;;;;;40.70;14.68;;;8.00;99.90;;;;;;21100602;28;20059;-77
2022/11/12 09:57:00;;;;;;;40.80;15.53;;;8.30;99.90;;;;;;21084893;28;20119;-78
2022/11/12 10:07:28;;;;;;;42.83;14.50;;;8.50;99.90;;;;;;21098166;28;20040;-78
2022/11/12 10:18:03;;;;;;;38.33;14.43;;;8.80;99.90;;;;;;21098287;28;20637;-78
2022/11/12 10:28:30;;;;;;;40.10;15.73;;;8.70;99.90;;;;;;21099248;28;20251;-77
2022/11/12 10:38:53;;;;;;;36.67;15.70;;;8.80;99.90;;;;;;21088381;28;20044;-78
2022/11/12 10:49:15;;;;;;;37.92;16.25;;;8.90;99.90;;;;;;21050712;28;20032;-78
2022/11/12 10:59:35;;;;;;;33.75;14.40;;;8.90;99.90;;;;;;20991871;28;20502;-77
2022/11/12 11:09:59;;;;;;;34.47;13.20;;;9.00;99.90;;;;;;21007276;28;20044;-80
2022/11/12 11:20:22;;;;;;;37.65;15.05;;;9.20;99.90;;;;;;21017921;28;20036;-80
2022/11/12 11:30:56;;;;;;;34.47;14.38;;;9.10;99.90;;;;;;21019331;28;20036;-79
2022/11/12 11:41:34;;;;;;;38.22;14.55;;;9.20;99.90;;;;;;21005924;28;20032;-79
2022/11/12 11:52:06;;;;;;;34.63;14.73;;;9.20;99.90;;;;;;21016874;28;20040;-79
2022/11/12 12:03:01;;;;;;;29.87;10.17;;;9.20;99.90;;;;;;21012614;28;20041;-79
2022/11/12 12:13:39;;;;;;;37.30;15.07;;;9.50;99.90;;;;;;20901595;28;20503;-79
2022/11/12 12:24:21;;;;;;;31.33;13.27;;;9.60;99.90;;;;;;20927292;28;20033;-80
2022/11/12 12:35:09;;;;;;;33.60;14.93;;;9.60;99.90;;;;;;20928794;28;20044;-80
2022/11/12 12:45:38;;;;;;;41.67;16.25;;;9.40;99.90;;;;;;20929887;28;20032;-82
2022/11/12 12:56:05;;;;;;;39.80;14.43;;;9.30;99.90;;;;;;20936799;28;20045;-80
2022/11/12 13:06:26;;;;;;;38.60;15.30;;;9.40;99.90;;;;;;20909659;28;20415;-79
2022/11/12 13:16:49;;;;;;;34.38;14.10;;;9.50;99.90;;;;;;20938328;28;20045;-78
2022/11/12 13:27:09;;;;;;;36.28;15.55;;;9.60;99.90;;;;;;20919448;28;20041;-78
2022/11/12 13:37:31;;;;;;;35.75;14.65;;;9.50;99.90;;;;;;20919711;28;20064;-78
2022/11/12 13:47:52;;;;;;;36.38;14.13;;;9.70;99.90;;;;;;20932504;28;20041;-78
2022/11/12 13:58:42;;;;;;;41.28;17.92;;;9.60;99.90;;;;;;20972620;28;20037;-78
2022/11/12 14:09:23;;;;;;;30.20;14.02;;;9.70;99.90;;;;;;21006185;28;20036;-79
2022/11/12 14:19:51;;;;;;;28.00;13.98;;;9.50;99.90;;;;;;21019004;28;20500;-79
2022/11/12 14:30:17;;;;;;;31.63;14.25;;;9.60;99.90;;;;;;20923284;28;20037;-80
2022/11/12 14:41:00;;;;;;;27.63;13.45;;;9.40;99.90;;;;;;20937432;28;20112;-80
2022/11/12 14:51:20;;;;;;;34.50;15.23;;;9.40;99.90;;;;;;20937365;28;20384;-79
2022/11/12 15:02:00;;;;;;;31.33;13.85;;;9.30;99.90;;;;;;20936148;28;20045;-79
2022/11/12 15:12:27;;;;;;;52.92;20.23;;;9.20;99.90;;;;;;20916137;28;20041;-79
2022/11/12 15:22:51;;;;;;;34.90;13.95;;;9.20;99.90;;;;;;20919388;28;20037;-79
2022/11/12 15:33:10;;;;;;;28.60;12.90;;;9.20;99.90;;;;;;21010117;28;20048;-80
2022/11/12 15:43:34;;;;;;;36.28;14.23;;;9.30;99.90;;;;;;21084183;28;20036;-79
2022/11/12 15:53:54;;;;;;;31.30;14.48;;;9.10;99.90;;;;;;21050298;28;20045;-79
2022/11/12 16:04:13;;;;;;;35.78;14.93;;;8.90;99.90;;;;;;20901315;28;20112;-80
2022/11/12 16:14:33;;;;;;;42.22;17.67;;;8.90;99.90;;;;;;20917280;28;20054;-78
2022/11/12 16:24:52;;;;;;;32.20;14.73;;;8.70;99.90;;;;;;20916726;28;20044;-79
2022/11/12 16:35:11;;;;;;;36.33;15.82;;;8.70;99.90;;;;;;20916663;28;20041;-79
2022/11/12 16:45:34;;;;;;;37.47;16.00;;;8.60;99.90;;;;;;20913788;28;20032;-79
2022/11/12 16:55:56;;;;;;;34.80;15.75;;;8.60;99.90;;;;;;20959503;28;20119;-79
2022/11/12 17:06:15;;;;;;;40.97;16.45;;;8.60;99.90;;;;;;20995341;28;20486;-80
2022/11/12 17:16:35;;;;;;;38.28;16.45;;;8.50;99.90;;;;;;20973524;28;20119;-80
2022/11/12 17:26:54;;;;;;;38.92;15.82;;;8.50;99.90;;;;;;20925235;28;20120;-80
2022/11/12 17:37:14;;;;;;;39.67;14.13;;;8.50;99.90;;;;;;20920704;28;20045;-79
2022/11/12 17:47:33;;;;;;;29.50;12.77;;;8.50;99.90;;;;;;20991016;28;20037;-79
2022/11/12 17:57:52;;;;;;;39.05;18.10;;;8.40;99.90;;;;;;21090856;28;20071;-80
2022/11/12 18:08:11;;;;;;;37.47;14.43;;;8.30;99.90;;;;;;21102618;28;20040;-80
2022/11/12 18:18:30;;;;;;;41.13;16.88;;;8.10;99.90;;;;;;21101660;28;20064;-81
2022/11/12 18:28:51;;;;;;;38.60;16.85;;;8.10;99.90;;;;;;21072344;28;20040;-80
2022/11/12 18:39:11;;;;;;;37.55;15.30;;;8.20;99.90;;;;;;21016394;28;20036;-79
2022/11/12 18:49:30;;;;;;;34.70;16.02;;;8.00;99.90;;;;;;20999129;28;20496;-81
2022/11/12 18:59:53;;;;;;;45.33;19.30;;;8.00;99.90;;;;;;21014150;28;20119;-80
2022/11/12 19:10:13;;;;;;;48.63;17.80;;;7.90;99.90;;;;;;21004676;28;20040;-79
2022/11/12 19:20:33;;;;;;;44.42;16.83;;;7.90;99.90;;;;;;20927834;28;20044;-79
2022/11/12 19:30:52;;;;;;;41.47;17.10;;;7.80;99.90;;;;;;20930404;28;20041;-79
2022/11/12 19:41:14;;;;;;;35.42;14.02;;;7.80;99.90;;;;;;20928579;28;20065;-80
2022/11/12 19:51:33;;;;;;;37.35;14.63;;;7.60;99.90;;;;;;20912082;28;20040;-79
2022/11/12 20:01:52;;;;;;;34.08;15.25;;;7.90;99.90;;;;;;20995500;28;20032;-79
2022/11/12 20:12:11;;;;;;;31.38;14.38;;;7.60;99.90;;;;;;21085886;28;20040;-78
2022/11/12 20:22:31;;;;;;;36.55;16.73;;;7.60;99.90;;;;;;21062827;28;20442;-79
2022/11/12 20:32:51;;;;;;;37.08;14.82;;;7.40;99.90;;;;;;21021179;28;20044;-79
2022/11/12 20:43:10;;;;;;;39.35;16.25;;;7.50;99.90;;;;;;20985337;28;20041;-79
2022/11/12 20:53:30;;;;;;;34.50;15.32;;;7.50;99.90;;;;;;21020880;28;20039;-78
2022/11/12 21:03:49;;;;;;;32.03;14.00;;;7.50;99.90;;;;;;21010662;28;20037;-79
2022/11/12 21:14:10;;;;;;;41.13;15.57;;;7.40;99.90;;;;;;21007310;28;20037;-78
2022/11/12 21:24:29;;;;;;;44.72;17.65;;;7.40;99.90;;;;;;20997296;28;20495;-77
2022/11/12 21:34:48;;;;;;;40.10;16.40;;;7.30;99.90;;;;;;21004822;28;20499;-78
2022/11/12 21:45:09;;;;;;;39.35;16.10;;;7.20;99.90;;;;;;21013637;28;20028;-79
2022/11/12 21:55:28;;;;;;;31.75;14.85;;;7.20;99.90;;;;;;21049980;28;20040;-78
2022/11/12 22:05:48;;;;;;;38.30;15.35;;;7.10;99.90;;;;;;21016926;28;20499;-78
2022/11/12 22:16:10;;;;;;;32.63;14.45;;;7.00;99.90;;;;;;21014359;28;20060;-78
2022/11/12 22:26:30;;;;;;;38.08;14.75;;;7.10;99.90;;;;;;21011251;28;20056;-78
2022/11/12 22:36:49;;;;;;;35.97;14.85;;;7.00;99.90;;;;;;21012110;28;20481;-78
2022/11/12 22:47:08;;;;;;;40.08;14.45;;;7.00;99.90;;;;;;21009133;28;20507;-78
2022/11/12 22:57:27;;;;;;;32.83;13.98;;;6.90;99.90;;;;;;21049705;28;20116;-78
2022/11/12 23:07:47;;;;;;;29.33;14.10;;;6.80;99.90;;;;;;21007228;28;20037;-78
2022/11/12 23:18:06;;;;;;;33.13;12.95;;;6.80;99.90;;;;;;20994984;28;20040;-78
2022/11/12 23:28:25;;;;;;;30.88;13.13;;;6.90;99.90;;;;;;21005029;28;20040;-78
2022/11/12 23:38:44;;;;;;;32.15;12.95;;;6.70;99.90;;;;;;21003550;28;20064;-79
2022/11/12 23:49:03;;;;;;;33.58;14.93;;;6.80;99.90;;;;;;20961577;28;20441;-78
2022/11/12 23:59:23;;;;;;;30.17;14.23;;;6.70;99.90;;;;;;20961023;28;20529;-78
